Time;durP1;ratioP1;P1;durP2;ratioP2;P2;SDS_P1;SDS_P2;PMS_P1;PMS_P2;Temp;Humidity;BMP_temperature;BMP_pressure;BME280_temperature;BME280_humidity;BME280_pressure;Samples;Min_cycle;Max_cycle;Signal;HPM_P1;HPM_P2
2021/10/28 00:13:20;;;;;;;14.00;9.88;;;7.90;72.20;;;6.98;57.53;95680.28;5059550;28;20219;-84
2021/10/28 00:15:55;;;;;;;12.45;9.45;;;7.90;72.10;;;6.93;58.03;95679.06;5056762;28;20305;-85
2021/10/28 00:21:15;;;;;;;11.43;9.02;;;7.80;72.20;;;6.83;57.45;95676.53;5077233;28;20314;-84
2021/10/28 00:23:46;;;;;;;13.80;10.07;;;7.70;72.20;;;6.82;57.52;95674.91;5076754;28;20209;-84
2021/10/28 00:26:18;;;;;;;16.83;10.55;;;7.70;72.20;;;6.78;57.70;95670.97;5094108;28;20213;-85
2021/10/28 00:28:45;;;;;;;15.20;10.95;;;7.60;72.20;;;6.75;58.20;95672.09;5091199;28;20201;-84
2021/10/28 00:31:12;;;;;;;15.95;11.55;;;7.60;72.20;;;6.72;57.98;95672.38;5094262;28;20742;-84
2021/10/28 00:33:40;;;;;;;14.73;11.15;;;7.60;72.30;;;6.69;57.96;95676.09;5093327;28;20260;-84
2021/10/28 00:36:08;;;;;;;16.88;11.65;;;7.50;72.30;;;6.67;58.03;95677.22;5091349;28;20210;-84
2021/10/28 00:38:35;;;;;;;14.82;11.40;;;7.50;72.30;;;6.64;57.69;95673.13;5093294;28;20233;-84
2021/10/28 00:41:03;;;;;;;19.30;12.00;;;7.50;72.50;;;6.62;58.40;95666.44;5093087;28;20233;-84
2021/10/28 00:43:32;;;;;;;16.35;11.52;;;7.50;73.50;;;6.58;58.03;95663.28;5076406;28;20277;-83
2021/10/28 00:46:02;;;;;;;16.42;12.45;;;7.40;72.60;;;6.59;58.46;95661.50;5075397;28;20274;-84
2021/10/28 00:48:31;;;;;;;18.48;12.07;;;7.40;72.60;;;6.59;58.18;95662.31;5085255;28;20649;-83
2021/10/28 00:51:00;;;;;;;15.43;11.77;;;7.40;72.60;;;6.56;57.91;95658.19;5068105;28;20193;-83
2021/10/28 00:53:28;;;;;;;19.42;12.48;;;7.40;72.70;;;6.56;58.41;95663.41;5094417;28;20249;-83
2021/10/28 00:55:55;;;;;;;22.17;12.70;;;7.30;72.60;;;6.55;58.31;95661.81;5083447;28;20197;-83
2021/10/28 00:58:23;;;;;;;19.10;12.75;;;7.30;72.70;;;6.54;58.22;95664.53;5079283;28;20194;-83
2021/10/28 01:00:51;;;;;;;17.25;12.35;;;7.30;72.80;;;6.52;58.49;95654.28;5068466;28;20243;-83
2021/10/28 01:03:20;;;;;;;15.90;12.20;;;7.40;73.10;;;6.50;58.55;95658.00;5076832;28;20260;-83
2021/10/28 01:05:47;;;;;;;19.00;13.93;;;7.30;73.00;;;6.47;58.33;95659.13;5090773;28;20190;-83
2021/10/28 01:08:18;;;;;;;19.27;12.93;;;7.30;72.90;;;6.46;58.33;95654.88;5091384;28;20187;-83
2021/10/28 01:10:48;;;;;;;18.55;12.02;;;7.30;73.00;;;6.49;58.44;95658.94;5092623;28;20255;-84
2021/10/28 01:13:17;;;;;;;17.60;13.68;;;7.30;73.20;;;6.46;58.50;95661.84;5082826;28;20301;-84
2021/10/28 01:15:45;;;;;;;19.77;13.27;;;7.30;73.10;;;6.40;58.38;95652.84;5063188;28;20210;-84
2021/10/28 01:18:16;;;;;;;18.98;13.05;;;7.20;73.00;;;6.41;58.46;95660.50;5077113;28;20192;-83
2021/10/28 01:20:47;;;;;;;18.63;12.68;;;7.20;73.20;;;6.40;58.55;95658.06;5075875;28;20293;-84
2021/10/28 01:23:23;;;;;;;20.08;13.15;;;7.20;73.30;;;6.37;58.55;95647.91;5096437;28;20186;-83
2021/10/28 01:25:52;;;;;;;20.20;12.63;;;7.20;73.10;;;6.36;58.56;95651.47;5059499;28;20252;-83
2021/10/28 01:28:21;;;;;;;16.95;13.15;;;7.20;73.10;;;6.34;58.75;95648.22;5081142;28;20204;-84
2021/10/28 01:31:00;;;;;;;17.05;12.45;;;7.20;73.20;;;6.31;58.47;95649.34;5091405;28;20190;-84
2021/10/28 01:33:28;;;;;;;19.13;12.93;;;7.10;73.80;;;6.29;58.55;95653.06;5080429;28;20222;-84
2021/10/28 01:35:56;;;;;;;18.17;13.43;;;7.10;73.10;;;6.22;58.79;95640.59;5097239;28;20243;-84
2021/10/28 01:38:27;;;;;;;18.48;13.13;;;7.10;73.20;;;6.22;58.46;95639.78;5082367;28;20477;-84
2021/10/28 01:40:59;;;;;;;17.83;12.75;;;7.00;73.10;;;6.19;58.29;95647.88;5065877;28;20202;-84
2021/10/28 01:43:29;;;;;;;18.02;13.10;;;7.00;73.00;;;6.13;58.51;95641.50;5097127;28;20659;-84
2021/10/28 01:45:57;;;;;;;17.20;12.65;;;7.00;73.20;;;6.12;58.66;95644.25;5100020;28;20191;-84
2021/10/28 01:48:25;;;;;;;19.13;12.82;;;7.00;73.00;;;6.05;58.65;95637.03;5098531;28;20194;-83
2021/10/28 01:50:55;;;;;;;19.73;13.82;;;6.90;73.20;;;6.04;58.93;95634.53;5083787;28;20197;-83
2021/10/28 01:53:22;;;;;;;19.70;13.63;;;6.90;73.30;;;6.01;58.81;95633.06;5076311;28;20804;-83
2021/10/28 01:55:49;;;;;;;18.92;13.63;;;6.80;73.20;;;5.95;59.26;95623.19;5075405;28;20656;-84
2021/10/28 01:58:22;;;;;;;18.63;13.23;;;6.90;73.30;;;5.97;58.65;95629.09;5070817;28;20227;-84
2021/10/28 02:00:51;;;;;;;19.42;13.50;;;6.80;73.20;;;5.94;58.79;95626.75;5037351;28;20195;-84
2021/10/28 02:03:19;;;;;;;22.80;13.85;;;6.80;73.50;;;5.92;58.84;95621.69;5053065;28;20199;-84
2021/10/28 02:05:48;;;;;;;23.42;15.18;;;6.80;73.60;;;5.90;58.87;95617.59;5036524;28;20290;-85
2021/10/28 02:08:16;;;;;;;21.90;14.63;;;6.80;73.60;;;5.90;59.08;95621.00;5049940;28;20187;-84
2021/10/28 02:10:46;;;;;;;19.52;13.25;;;6.70;73.60;;;5.88;58.89;95616.91;5069704;28;20295;-83
2021/10/28 02:13:15;;;;;;;21.15;15.20;;;6.70;73.60;;;5.86;58.90;95614.47;5072453;28;20207;-83
2021/10/28 02:15:42;;;;;;;24.08;14.55;;;6.70;73.60;;;5.79;58.92;95610.00;5054609;28;20237;-83
2021/10/28 02:18:10;;;;;;;22.52;15.50;;;6.70;73.60;;;5.83;59.14;95616.53;5072588;28;20656;-84
2021/10/28 02:20:38;;;;;;;19.42;13.52;;;6.70;73.60;;;5.82;59.02;95612.28;5055572;28;20678;-84
2021/10/28 02:23:10;;;;;;;20.02;14.18;;;6.70;73.60;;;5.80;58.90;95609.00;5071893;28;20219;-84
2021/10/28 02:25:37;;;;;;;18.83;14.15;;;6.60;73.50;;;5.72;58.91;95601.94;5056868;28;20604;-84
2021/10/28 02:28:04;;;;;;;22.80;15.43;;;6.60;73.50;;;5.73;58.95;95609.59;5038032;28;20295;-84
2021/10/28 02:30:32;;;;;;;20.75;14.57;;;6.60;73.50;;;5.73;59.11;95608.78;5071099;28;20183;-84
2021/10/28 02:33:00;;;;;;;23.00;15.25;;;6.60;73.50;;;5.71;59.24;95608.94;5054353;28;20719;-84
2021/10/28 02:35:27;;;;;;;22.20;15.07;;;6.50;73.40;;;5.70;59.32;95606.44;5081460;28;20223;-85
2021/10/28 02:37:54;;;;;;;22.77;14.95;;;6.50;73.50;;;5.69;59.29;95612.63;5062167;28;20218;-84
2021/10/28 02:40:22;;;;;;;22.08;14.07;;;6.50;73.50;;;5.67;59.00;95606.75;5073091;28;20298;-84
2021/10/28 02:42:49;;;;;;;20.13;14.00;;;6.50;73.50;;;5.65;59.47;95604.31;5072910;28;20209;-84
2021/10/28 02:45:16;;;;;;;22.80;15.10;;;6.50;73.40;;;5.65;59.30;95606.06;5091486;28;20273;-84
2021/10/28 02:47:43;;;;;;;21.65;14.73;;;6.50;73.40;;;5.63;59.33;95608.00;5057024;28;20234;-84
2021/10/28 02:50:11;;;;;;;22.77;15.77;;;6.50;73.40;;;5.56;58.91;95590.34;5058246;28;20203;-85
2021/10/28 02:52:40;;;;;;;20.90;14.57;;;6.50;73.40;;;5.60;59.51;95602.13;5058197;28;20231;-84
2021/10/28 02:55:08;;;;;;;24.00;15.20;;;6.40;73.40;;;5.61;59.40;95605.53;5058402;28;20243;-84
2021/10/28 02:57:35;;;;;;;20.92;14.75;;;6.40;73.40;;;5.56;59.24;95597.34;5092479;28;20278;-84
2021/10/28 03:00:03;;;;;;;21.50;15.05;;;6.40;73.40;;;5.58;59.19;95601.44;5078399;28;20233;-85
2021/10/28 03:02:30;;;;;;;23.90;15.20;;;6.40;73.80;;;5.58;59.42;95606.66;5077419;28;20219;-84
2021/10/28 03:04:58;;;;;;;22.58;14.93;;;6.40;73.40;;;5.59;59.77;95604.84;5078308;28;20204;-85
2021/10/28 03:07:25;;;;;;;44.15;16.20;;;6.40;73.50;;;5.57;59.44;95594.59;5083799;28;20211;-84
2021/10/28 03:09:52;;;;;;;36.83;14.43;;;6.40;73.80;;;5.60;59.50;95598.69;5057853;28;20199;-84
2021/10/28 03:12:19;;;;;;;72.82;15.55;;;6.40;73.90;;;5.63;60.13;95601.03;5058042;28;20309;-84
2021/10/28 03:14:58;;;;;;;84.18;15.57;;;6.40;74.00;;;5.68;59.98;95608.41;5074630;28;20201;-84
2021/10/28 03:27:40;;;;;;;420.58;199.30;;;6.60;74.80;;;6.03;60.14;95593.84;5086418;28;20215;-83
2021/10/28 03:30:09;;;;;;;290.88;127.40;;;6.60;74.80;;;6.09;60.00;95599.28;5060406;28;20199;-83
2021/10/28 03:32:38;;;;;;;194.10;69.28;;;6.70;75.00;;;6.16;60.01;95598.69;5087660;28;20214;-83
2021/10/28 03:35:11;;;;;;;129.75;41.88;;;6.70;75.00;;;6.19;60.07;95588.81;5095544;28;20195;-83
2021/10/28 03:37:47;;;;;;;132.27;28.27;;;6.80;75.10;;;6.27;59.95;95593.28;5087487;28;20248;-82
2021/10/28 03:46:18;;;;;;;73.68;14.75;;;6.90;75.00;;;6.38;60.00;95592.25;5079305;28;20238;-84
2021/10/28 04:03:09;;;;;;;53.70;14.20;;;7.10;74.70;;;6.42;59.84;95583.19;5092757;28;20210;-84
2021/10/28 04:19:29;;;;;;;46.88;13.35;;;7.10;74.80;;;6.34;59.66;95578.69;5057000;28;20198;-84
2021/10/28 04:29:35;;;;;;;80.68;16.92;;;7.10;74.90;;;6.38;60.27;95580.03;5073601;28;20203;-82
2021/10/28 04:32:03;;;;;;;68.68;17.17;;;7.10;74.90;;;6.40;60.07;95577.28;5070917;28;20215;-84
2021/10/28 04:34:30;;;;;;;81.45;17.98;;;7.00;75.00;;;6.43;60.49;95584.78;5076336;28;20690;-84
2021/10/28 04:36:58;;;;;;;81.50;17.20;;;7.10;75.00;;;6.45;60.28;95582.84;5074706;28;20222;-84
2021/10/28 04:39:25;;;;;;;61.88;16.63;;;7.10;75.10;;;6.41;60.30;95569.31;5057728;28;20652;-84
2021/10/28 04:41:52;;;;;;;52.42;14.23;;;7.10;75.10;;;6.47;60.42;95580.94;5065547;28;20290;-84
2021/10/28 04:44:19;;;;;;;75.63;12.88;;;7.10;75.00;;;6.48;60.24;95582.56;5072698;28;20202;-84
2021/10/28 04:46:46;;;;;;;61.42;12.35;;;7.10;75.10;;;6.48;60.39;95577.38;5072528;28;20211;-85
2021/10/28 04:49:14;;;;;;;82.05;13.05;;;7.10;75.10;;;6.48;60.61;95579.13;5089348;28;20206;-85
2021/10/28 04:51:41;;;;;;;65.78;11.82;;;7.10;75.00;;;6.46;60.20;95576.69;5074780;28;20211;-84
2021/10/28 04:54:08;;;;;;;84.45;12.10;;;7.20;75.10;;;6.46;60.52;95570.63;5075703;28;20236;-84
2021/10/28 04:56:36;;;;;;;74.55;11.82;;;7.10;75.00;;;6.45;60.49;95575.03;5059605;28;20680;-84
2021/10/28 04:59:03;;;;;;;72.22;12.85;;;7.10;75.00;;;6.42;60.72;95575.34;5093313;28;20222;-84
2021/10/28 05:01:32;;;;;;;59.42;11.80;;;7.10;75.00;;;6.43;60.81;95576.97;5092413;28;20675;-84
2021/10/28 05:04:00;;;;;;;82.90;13.85;;;7.10;75.00;;;6.42;60.68;95575.34;5090815;28;20209;-84
2021/10/28 05:06:27;;;;;;;104.53;16.10;;;7.20;75.10;;;6.40;60.84;95578.09;5091207;28;20211;-84
2021/10/28 05:08:54;;;;;;;120.32;14.75;;;7.10;75.10;;;6.41;60.71;95569.31;5092568;28;20187;-84
2021/10/28 05:11:23;;;;;;;85.68;13.55;;;7.10;75.20;;;6.40;60.95;95569.47;5092794;28;20714;-84
2021/10/28 05:13:52;;;;;;;78.68;13.38;;;7.10;75.20;;;6.41;60.62;95569.31;5058680;28;20249;-83
2021/10/28 05:16:19;;;;;;;124.38;13.77;;;7.10;75.20;;;6.44;60.71;95576.00;5109096;28;20222;-84
2021/10/28 05:18:47;;;;;;;74.35;13.02;;;7.10;75.30;;;6.43;60.60;95574.38;5092226;28;20187;-84
2021/10/28 05:21:15;;;;;;;92.88;13.38;;;7.10;75.20;;;6.43;60.88;95576.97;5091929;28;20229;-84
2021/10/28 05:23:43;;;;;;;90.05;13.00;;;7.10;75.40;;;6.47;60.98;95578.31;5071736;28;20203;-85
2021/10/28 05:26:10;;;;;;;98.10;14.63;;;7.10;75.40;;;6.46;60.95;95571.47;5070825;28;20719;-85
2021/10/28 05:28:37;;;;;;;122.35;13.50;;;7.10;75.40;;;6.49;60.95;95578.97;5055819;28;20306;-84
2021/10/28 05:31:06;;;;;;;70.65;13.05;;;7.10;75.50;;;6.49;60.73;95573.75;5063760;28;20219;-84
2021/10/28 05:33:34;;;;;;;86.40;14.32;;;7.10;75.40;;;6.51;61.06;95574.44;5075479;28;20214;-84
2021/10/28 05:36:01;;;;;;;78.43;13.75;;;7.10;75.50;;;6.52;61.03;95581.28;5074952;28;20691;-85
2021/10/28 05:38:28;;;;;;;81.50;12.75;;;7.10;75.50;;;6.53;61.12;95579.50;5059053;28;20256;-85
2021/10/28 05:40:56;;;;;;;87.97;13.27;;;7.10;75.50;;;6.55;60.82;95580.19;5092348;28;20247;-84
2021/10/28 05:43:23;;;;;;;74.43;12.23;;;7.20;75.60;;;6.56;60.75;95581.81;5075699;28;20297;-83
2021/10/28 05:45:50;;;;;;;89.50;13.68;;;7.20;75.60;;;6.59;61.08;95584.09;5074685;28;20202;-85
2021/10/28 05:48:17;;;;;;;118.75;15.07;;;7.20;75.60;;;6.60;61.03;95582.34;5062036;28;20304;-84
2021/10/28 05:50:47;;;;;;;85.32;14.20;;;7.20;75.60;;;6.61;61.43;95583.97;5090198;28;20625;-84
2021/10/28 05:53:16;;;;;;;91.00;13.80;;;7.20;75.60;;;6.62;61.22;95583.00;5055000;28;20223;-85
2021/10/28 05:55:43;;;;;;;101.07;14.73;;;7.20;75.70;;;6.61;61.26;95581.38;5065080;28;20244;-84
2021/10/28 05:58:10;;;;;;;81.97;14.30;;;7.20;75.70;;;6.62;61.35;95586.44;5075391;28;20202;-84
2021/10/28 06:00:38;;;;;;;105.70;14.02;;;7.20;75.70;;;6.63;61.09;95579.41;5075035;28;20199;-84
2021/10/28 06:03:05;;;;;;;147.63;15.93;;;7.20;75.70;;;6.68;61.49;95580.59;5091898;28;20218;-84
2021/10/28 06:05:37;;;;;;;115.68;14.70;;;7.30;75.80;;;6.71;61.02;95580.31;5055860;28;20289;-85
2021/10/28 06:08:05;;;;;;;116.00;13.40;;;7.30;75.80;;;6.75;61.21;95580.00;5055044;28;20215;-85
2021/10/28 06:10:33;;;;;;;100.78;14.20;;;7.30;75.80;;;6.75;61.57;95588.66;5071601;28;20665;-84
2021/10/28 06:13:03;;;;;;;87.60;14.13;;;7.30;75.90;;;6.75;61.61;95586.06;5053358;28;20231;-85
2021/10/28 06:15:32;;;;;;;76.90;14.02;;;7.40;75.90;;;6.80;61.41;95586.41;5054447;28;20713;-84
2021/10/28 06:18:11;;;;;;;89.25;14.02;;;7.40;75.90;;;6.82;61.28;95589.69;5069701;28;20351;-83
2021/10/28 06:20:38;;;;;;;93.97;13.48;;;7.40;75.90;;;6.86;61.46;95587.56;5061649;28;20633;-83
2021/10/28 06:23:06;;;;;;;57.33;13.43;;;7.50;76.00;;;6.87;61.61;95586.59;5090395;28;20206;-84
2021/10/28 06:25:33;;;;;;;65.25;13.82;;;7.40;76.00;;;6.87;61.91;95590.06;5084243;28;20230;-84
2021/10/28 06:28:02;;;;;;;74.32;14.20;;;7.40;76.00;;;6.93;61.73;95585.19;5077116;28;20222;-84
2021/10/28 06:30:29;;;;;;;59.88;14.45;;;7.50;76.10;;;7.00;61.68;95597.47;5078491;28;20195;-85
2021/10/28 06:33:00;;;;;;;64.03;14.75;;;7.50;76.10;;;7.02;61.67;95595.53;5061403;28;20217;-83
2021/10/28 06:35:28;;;;;;;88.88;14.75;;;7.50;76.10;;;7.08;61.61;95598.50;5058549;28;20195;-83
2021/10/28 06:37:56;;;;;;;64.75;13.93;;;7.60;76.10;;;7.11;61.35;95606.03;5077600;28;20687;-84
2021/10/28 06:40:25;;;;;;;40.83;14.48;;;7.60;76.20;;;7.09;61.63;95605.34;5078224;28;20234;-83
2021/10/28 06:42:54;;;;;;;49.17;14.85;;;7.70;76.40;;;7.18;61.53;95610.47;5062014;28;20305;-83
2021/10/28 06:45:22;;;;;;;58.00;15.57;;;7.70;76.20;;;7.22;61.68;95614.41;5077264;28;20206;-83
2021/10/28 06:47:54;;;;;;;60.75;15.50;;;7.70;76.20;;;7.23;61.67;95612.63;5057777;28;20307;-83
2021/10/28 06:50:27;;;;;;;39.05;15.10;;;7.80;76.20;;;7.29;61.58;95614.63;5093031;28;20683;-83
2021/10/28 07:03:39;;;;;;;42.22;15.45;;;7.90;76.40;;;7.51;61.75;95618.50;5091311;28;20207;-86
2021/10/28 07:06:18;;;;;;;53.97;17.08;;;8.00;76.40;;;7.53;61.50;95618.31;5073183;28;20227;-85
2021/10/28 07:08:48;;;;;;;66.93;29.52;;;8.00;76.40;;;7.56;61.74;95617.22;5092688;28;20190;-84
2021/10/28 07:11:22;;;;;;;54.67;22.90;;;8.10;76.50;;;7.62;61.87;95617.41;5076877;28;20695;-84
2021/10/28 07:13:51;;;;;;;42.22;19.00;;;8.10;76.50;;;7.68;62.21;95615.97;5090461;28;20689;-85
2021/10/28 07:16:29;;;;;;;48.92;18.92;;;8.10;76.60;;;7.73;61.96;95613.69;5057339;28;20225;-85
2021/10/28 07:24:18;;;;;;;50.72;17.92;;;8.20;76.60;;;7.90;61.78;95608.53;5076616;28;20247;-83
2021/10/28 07:34:58;;;;;;;34.75;19.60;;;8.40;77.00;;;8.17;62.08;95603.06;5076917;28;20322;-84
2021/10/28 07:59:38;;;;;;;27.85;20.35;;;9.10;77.40;;;8.92;62.71;95608.41;5077478;28;20252;-85
2021/10/28 08:29:17;;;;;;;25.60;18.85;;;10.20;76.60;;;10.05;62.95;95604.06;5079400;28;20713;-84
2021/10/28 08:31:44;;;;;;;27.98;20.20;;;10.30;76.60;;;10.08;62.99;95596.66;5071860;28;20221;-82
2021/10/28 08:34:11;;;;;;;27.42;20.92;;;10.40;76.60;;;10.16;62.85;95592.38;5098973;28;20293;-83
2021/10/28 08:36:43;;;;;;;27.77;20.42;;;10.40;76.40;;;10.14;62.68;95574.19;5076700;28;20223;-84
2021/10/28 08:39:11;;;;;;;26.13;19.70;;;10.40;76.40;;;10.24;62.59;95590.53;5064937;28;20660;-84
2021/10/28 08:41:38;;;;;;;31.05;20.17;;;10.50;76.30;;;10.32;62.67;95580.97;5093721;28;20214;-83
2021/10/28 08:44:06;;;;;;;24.50;19.77;;;10.50;76.40;;;10.43;62.82;95580.59;5103610;28;20219;-84
2021/10/28 08:46:33;;;;;;;26.90;20.63;;;10.70;76.60;;;10.52;62.61;95576.94;5070022;28;20263;-83
2021/10/28 08:49:03;;;;;;;27.70;20.33;;;10.70;76.60;;;10.65;62.82;95576.34;5086490;28;20211;-84
2021/10/28 08:51:44;;;;;;;26.80;20.38;;;10.70;76.60;;;10.72;62.78;95566.78;5084256;28;20218;-84
2021/10/28 08:57:15;;;;;;;28.90;21.63;;;11.10;76.80;;;10.96;62.85;95572.81;5095700;28;20218;-84
2021/10/28 09:25:48;;;;;;;27.83;21.98;;;11.80;75.80;;;11.50;61.84;95560.47;5087191;28;20191;-85
2021/10/28 09:28:42;;;;;;;27.88;21.48;;;11.80;75.90;;;11.57;61.86;95555.31;5081989;28;20245;-84
2021/10/28 09:31:14;;;;;;;28.70;22.17;;;11.80;75.80;;;11.64;61.67;95554.38;5088356;28;20584;-84
2021/10/28 09:51:34;;;;;;;28.10;21.48;;;12.00;76.00;;;11.99;60.86;95551.22;5081953;28;20241;-85
2021/10/28 09:59:56;;;;;;;29.00;21.70;;;12.20;76.00;;;12.22;60.94;95555.50;5099349;28;20255;-85
2021/10/28 10:05:25;;;;;;;28.95;21.10;;;12.40;75.70;;;12.38;60.36;95546.53;5082171;28;20292;-84
2021/10/28 10:07:58;;;;;;;31.13;20.48;;;12.50;75.80;;;12.46;60.26;95557.78;5080802;28;20238;-85
2021/10/28 10:10:29;;;;;;;27.30;21.33;;;12.50;75.60;;;12.53;60.19;95557.84;5096323;28;20201;-86
2021/10/28 10:12:57;;;;;;;27.45;21.67;;;12.50;75.40;;;12.57;59.92;95553.84;5079462;28;20244;-85
2021/10/28 10:15:26;;;;;;;30.45;23.10;;;12.60;75.40;;;12.62;60.08;95550.63;5096074;28;20474;-85
2021/10/28 10:18:01;;;;;;;27.58;22.05;;;12.70;75.40;;;12.61;59.71;95541.94;5096030;28;20263;-86
2021/10/28 10:20:45;;;;;;;28.77;21.85;;;12.70;75.10;;;12.71;59.87;95546.88;5079606;28;20772;-86
2021/10/28 10:23:29;;;;;;;26.88;21.15;;;12.70;75.10;;;12.76;59.81;95554.22;5097323;28;20194;-86
2021/10/28 11:25:53;;;;;;;24.77;19.67;;;14.30;74.10;;;14.67;57.45;95479.03;5074460;28;20191;-85
2021/10/28 11:29:08;;;;;;;24.13;19.50;;;14.50;74.10;;;14.93;57.48;95476.56;5071469;28;20202;-86
2021/10/28 12:17:17;;;;;;;22.17;16.80;;;17.70;68.70;;;18.27;48.18;95406.09;5055860;28;20361;-86
2021/10/28 12:45:57;;;;;;;19.92;14.88;;;19.50;65.50;;;19.95;45.88;95400.41;5060712;28;20648;-85
2021/10/28 12:48:56;;;;;;;17.65;14.60;;;19.60;65.10;;;19.99;45.99;95388.22;5072040;28;20194;-85
2021/10/28 12:54:09;;;;;;;21.23;16.17;;;19.80;64.40;;;20.06;45.27;95398.72;5075308;28;20242;-86
2021/10/28 12:57:09;;;;;;;16.35;13.63;;;20.00;64.30;;;20.19;45.42;95386.94;5085058;28;20275;-85
2021/10/28 13:38:12;;;;;;;17.63;13.98;;;21.80;62.20;;;21.27;43.71;95367.22;5076437;28;20214;-87
2021/10/28 13:49:38;;;;;;;16.98;13.98;;;22.20;61.60;;;21.47;43.83;95373.84;5099051;28;20194;-86
2021/10/28 14:14:58;;;;;;;16.92;13.45;;;22.20;60.20;;;20.92;42.88;95350.53;5080919;28;20202;-85
2021/10/28 14:39:30;;;;;;;17.67;13.63;;;21.40;58.00;;;19.49;41.69;95355.06;5063662;28;20244;-85
2021/10/28 15:01:44;;;;;;;17.90;14.55;;;17.70;59.10;;;16.00;44.28;95363.31;5081368;28;20247;-84
2021/10/28 15:34:41;;;;;;;23.10;15.05;;;14.30;61.30;;;13.10;46.88;95350.66;5079108;28;20207;-83
2021/10/28 15:39:47;;;;;;;18.67;14.95;;;14.00;61.70;;;12.78;47.13;95347.69;5074634;28;20226;-85
2021/10/28 15:48:37;;;;;;;18.48;15.32;;;13.40;61.80;;;12.37;47.81;95352.91;5078998;28;20241;-82
2021/10/28 15:51:50;;;;;;;17.95;13.95;;;13.30;62.00;;;12.24;47.48;95348.34;5088496;28;20186;-82
2021/10/28 16:23:05;;;;;;;19.85;16.67;;;11.90;63.00;;;10.94;49.16;95317.59;5078363;28;20309;-84
2021/10/28 16:25:32;;;;;;;22.08;17.25;;;11.80;63.10;;;10.93;48.87;95325.66;5071506;28;20397;-84
2021/10/28 16:28:05;;;;;;;19.05;15.93;;;11.80;63.30;;;10.85;49.41;95323.94;5092821;28;20707;-85
2021/10/28 16:30:32;;;;;;;20.35;17.25;;;11.70;63.40;;;10.78;49.42;95323.88;5062666;28;20732;-84
2021/10/28 16:32:59;;;;;;;22.23;17.52;;;11.60;63.40;;;10.73;49.45;95321.78;5055853;28;20707;-85
2021/10/28 16:35:29;;;;;;;18.95;15.27;;;11.50;63.40;;;10.69;49.56;95322.31;5086341;28;20684;-85
2021/10/28 16:37:57;;;;;;;19.95;17.02;;;11.50;63.60;;;10.64;49.48;95322.06;5071870;28;20207;-84
2021/10/28 16:40:24;;;;;;;19.67;16.65;;;11.40;63.70;;;10.59;49.74;95321.81;5086823;28;20272;-85
2021/10/28 16:42:51;;;;;;;21.48;16.67;;;11.40;63.80;;;10.53;49.75;95321.53;5093305;28;20567;-84
2021/10/28 16:45:18;;;;;;;22.58;17.25;;;11.30;63.90;;;10.48;50.19;95320.44;5055862;28;20278;-85
2021/10/28 16:47:45;;;;;;;21.27;17.08;;;11.30;63.90;;;10.42;50.02;95319.34;5066549;28;20272;-85
2021/10/28 16:50:14;;;;;;;22.27;17.02;;;11.20;64.00;;;10.38;49.65;95318.09;5090008;28;20223;-85
2021/10/28 16:52:42;;;;;;;22.25;17.88;;;11.20;64.10;;;10.34;50.12;95320.22;5075525;28;20219;-84
2021/10/28 16:55:09;;;;;;;24.92;18.60;;;11.10;64.20;;;10.29;50.32;95325.19;5080940;28;20206;-84
2021/10/28 16:57:36;;;;;;;23.23;18.08;;;11.10;64.30;;;10.26;50.61;95325.53;5075883;28;20264;-85
2021/10/28 17:00:06;;;;;;;22.75;18.63;;;11.00;64.30;;;10.18;50.80;95313.34;5073258;28;20312;-83
2021/10/28 17:02:33;;;;;;;24.17;18.20;;;11.00;64.60;;;10.15;50.49;95321.56;5064167;28;20300;-85
2021/10/28 17:05:01;;;;;;;20.35;17.38;;;10.90;64.40;;;10.12;50.44;95324.53;5055485;28;20195;-84
2021/10/28 17:07:29;;;;;;;22.15;16.38;;;11.00;64.70;;;10.09;50.69;95322.25;5074537;28;20617;-80
2021/10/28 17:09:59;;;;;;;20.13;16.65;;;10.80;64.50;;;10.05;50.53;95326.25;5074818;28;20190;-80
2021/10/28 17:12:26;;;;;;;22.58;17.17;;;10.80;64.60;;;9.99;50.74;95327.75;5063894;28;20458;-80
2021/10/28 17:14:54;;;;;;;24.25;18.83;;;10.70;64.60;;;9.96;50.73;95322.06;5080726;28;20212;-80
2021/10/28 17:17:21;;;;;;;23.00;17.77;;;10.70;64.70;;;9.87;51.07;95314.28;5094530;28;20232;-81
2021/10/28 17:19:49;;;;;;;22.25;17.90;;;10.70;64.70;;;9.86;50.63;95314.44;5067302;28;20218;-80
2021/10/28 17:22:16;;;;;;;21.67;18.15;;;10.60;64.60;;;9.81;50.96;95317.59;5096332;28;20220;-80
2021/10/28 17:24:49;;;;;;;23.50;18.27;;;10.70;64.70;;;9.71;51.17;95306.56;5084511;28;20209;-81
2021/10/28 17:27:18;;;;;;;24.35;17.45;;;10.50;64.70;;;9.69;50.83;95311.16;5084273;28;20729;-80
2021/10/28 17:29:46;;;;;;;25.85;19.00;;;10.50;64.70;;;9.64;50.99;95311.69;5082927;28;20187;-80
2021/10/28 17:32:13;;;;;;;22.33;17.38;;;10.40;64.70;;;9.60;50.86;95305.16;5086589;28;20283;-80
2021/10/28 17:34:40;;;;;;;26.20;18.98;;;10.40;64.80;;;9.53;51.34;95301.63;5083245;28;20201;-81
2021/10/28 17:37:08;;;;;;;22.98;18.15;;;10.40;65.00;;;9.50;51.26;95299.38;5084203;28;20314;-80
2021/10/28 17:39:35;;;;;;;26.15;19.33;;;10.40;65.10;;;9.43;51.35;95301.88;5080856;28;20209;-81
2021/10/28 17:42:03;;;;;;;26.30;20.20;;;10.30;65.10;;;9.40;51.70;95295.19;5098723;28;20213;-79
2021/10/28 17:44:37;;;;;;;27.23;18.40;;;10.20;65.10;;;9.38;51.48;95301.56;5089708;28;20546;-81
2021/10/28 17:47:05;;;;;;;24.17;18.40;;;10.20;65.30;;;9.35;51.61;95301.91;5060769;28;20246;-79
2021/10/28 17:49:33;;;;;;;26.60;19.33;;;10.10;65.30;;;9.31;51.81;95301.44;5061945;28;20186;-79
2021/10/28 17:52:01;;;;;;;27.80;20.90;;;10.10;65.30;;;9.23;51.73;95298.91;5100326;28;20215;-80
2021/10/28 17:54:28;;;;;;;27.13;19.55;;;10.10;65.30;;;9.25;51.83;95302.97;5100711;28;20625;-79
2021/10/28 17:56:56;;;;;;;26.98;19.48;;;10.10;65.50;;;9.19;52.15;95294.97;5065959;28;20303;-79
2021/10/28 17:59:23;;;;;;;28.70;21.33;;;10.00;65.50;;;9.19;52.14;95300.22;5082737;28;20281;-79
2021/10/28 18:01:50;;;;;;;28.73;21.30;;;9.90;66.90;;;9.15;52.32;95302.38;5087082;28;20222;-79
2021/10/28 18:04:19;;;;;;;28.88;22.25;;;10.00;65.70;;;9.13;52.38;95299.94;5099711;28;20601;-79
2021/10/28 18:06:50;;;;;;;28.98;21.05;;;9.90;67.00;;;9.09;52.14;95297.81;5075750;28;21759;-79
2021/10/28 18:09:19;;;;;;;27.52;21.70;;;9.90;67.10;;;9.07;52.34;95291.94;5078461;28;20277;-79
2021/10/28 18:11:46;;;;;;;26.83;19.80;;;9.80;67.10;;;9.03;52.13;95293.28;5079681;28;20222;-79
2021/10/28 18:14:16;;;;;;;27.23;21.45;;;9.80;67.10;;;8.99;52.48;95292.81;5084470;28;20191;-80
2021/10/28 18:16:44;;;;;;;27.63;21.13;;;9.90;67.30;;;8.99;52.42;95294.63;5068553;28;20288;-79
2021/10/28 18:19:11;;;;;;;28.42;21.40;;;9.70;67.20;;;8.94;52.51;95285.47;5077918;28;20260;-79
2021/10/28 18:21:45;;;;;;;31.02;23.00;;;9.70;67.30;;;8.89;52.67;95287.81;5077628;28;20230;-79
2021/10/28 18:24:17;;;;;;;30.55;23.35;;;9.70;67.50;;;8.88;52.80;95287.97;5074383;28;20183;-80
2021/10/28 18:26:44;;;;;;;27.50;21.73;;;9.70;67.50;;;8.83;52.73;95283.25;5041624;28;20253;-80
2021/10/28 18:29:12;;;;;;;28.40;22.23;;;9.60;67.50;;;8.79;52.61;95282.78;5065255;28;20191;-80
2021/10/28 18:31:40;;;;;;;28.83;22.38;;;9.60;67.50;;;8.77;52.89;95283.94;5075501;28;20707;-81
2021/10/28 18:34:09;;;;;;;29.73;21.55;;;9.50;67.50;;;8.72;52.85;95281.03;5085869;28;20723;-80
2021/10/28 18:36:36;;;;;;;30.38;22.85;;;9.50;67.50;;;8.68;52.90;95283.19;5081960;28;20229;-80
2021/10/28 18:39:08;;;;;;;30.23;22.98;;;9.60;67.60;;;8.65;52.95;95286.94;5084734;28;20221;-79
2021/10/28 18:41:35;;;;;;;30.08;22.73;;;9.50;67.80;;;8.60;52.96;95285.81;5068138;28;20240;-80
2021/10/28 18:44:04;;;;;;;28.40;21.95;;;9.40;67.60;;;8.58;53.00;95286.00;5072325;28;20188;-79
2021/10/28 18:46:33;;;;;;;29.13;22.88;;;9.40;67.70;;;8.56;53.04;95287.16;5074703;28;21406;-79
2021/10/28 18:49:03;;;;;;;34.60;24.13;;;9.40;67.80;;;8.52;53.22;95278.00;5066439;28;20218;-79
2021/10/28 18:51:32;;;;;;;33.45;24.00;;;9.30;67.80;;;8.45;53.07;95268.19;5081796;28;20211;-79
2021/10/28 18:54:01;;;;;;;28.98;22.90;;;9.30;67.80;;;8.42;53.06;95267.72;5075243;28;20200;-79
2021/10/28 18:56:29;;;;;;;28.88;22.92;;;9.30;67.80;;;8.40;53.03;95272.28;5093103;28;20233;-79